sensor_id;sensor_type;location;lat;lon;timestamp;temperature;humidity
7325;DHT22;3703;48.016;7.802;2022-09-12T00:01:18;16.20;1.00
7325;DHT22;3703;48.016;7.802;2022-09-12T00:04:08;16.20;1.00
7325;DHT22;3703;48.016;7.802;2022-09-12T00:06:56;16.10;1.00
7325;DHT22;3703;48.016;7.802;2022-09-12T00:09:44;15.80;1.00
7325;DHT22;3703;48.016;7.802;2022-09-12T00:12:32;15.80;1.00
7325;DHT22;3703;48.016;7.802;2022-09-12T00:15:20;15.90;1.00
7325;DHT22;3703;48.016;7.802;2022-09-12T00:18:12;16.10;1.00
7325;DHT22;3703;48.016;7.802;2022-09-12T00:21:03;16.20;1.00
7325;DHT22;3703;48.016;7.802;2022-09-12T00:23:51;16.40;1.00
7325;DHT22;3703;48.016;7.802;2022-09-12T00:26:39;16.50;1.00
7325;DHT22;3703;48.016;7.802;2022-09-12T00:29:26;16.50;1.00
7325;DHT22;3703;48.016;7.802;2022-09-12T00:32:14;16.70;1.00
7325;DHT22;3703;48.016;7.802;2022-09-12T00:35:04;16.60;1.00
7325;DHT22;3703;48.016;7.802;2022-09-12T00:37:52;16.50;1.00
7325;DHT22;3703;48.016;7.802;2022-09-12T00:40:40;16.50;1.00
7325;DHT22;3703;48.016;7.802;2022-09-12T00:43:37;16.60;1.00
7325;DHT22;3703;48.016;7.802;2022-09-12T00:46:30;16.60;1.00
7325;DHT22;3703;48.016;7.802;2022-09-12T00:49:25;16.70;1.00
7325;DHT22;3703;48.016;7.802;2022-09-12T00:52:20;16.60;1.00
7325;DHT22;3703;48.016;7.802;2022-09-12T00:55:13;16.40;1.00
7325;DHT22;3703;48.016;7.802;2022-09-12T00:58:05;16.30;1.00
7325;DHT22;3703;48.016;7.802;2022-09-12T01:00:56;16.40;1.00
7325;DHT22;3703;48.016;7.802;2022-09-12T01:03:44;16.50;1.00
7325;DHT22;3703;48.016;7.802;2022-09-12T01:06:34;16.50;1.00
7325;DHT22;3703;48.016;7.802;2022-09-12T01:09:24;16.50;1.00
7325;DHT22;3703;48.016;7.802;2022-09-12T01:12:14;16.50;1.00
7325;DHT22;3703;48.016;7.802;2022-09-12T01:15:01;16.40;1.00
7325;DHT22;3703;48.016;7.802;2022-09-12T01:17:58;16.40;1.00
7325;DHT22;3703;48.016;7.802;2022-09-12T01:21:13;16.40;1.00
7325;DHT22;3703;48.016;7.802;2022-09-12T01:24:29;16.30;1.00
7325;DHT22;3703;48.016;7.802;2022-09-12T01:27:42;16.20;1.00
7325;DHT22;3703;48.016;7.802;2022-09-12T01:30:44;16.30;1.00
7325;DHT22;3703;48.016;7.802;2022-09-12T01:33:54;16.20;1.00
7325;DHT22;3703;48.016;7.802;2022-09-12T01:36:53;16.20;1.00
7325;DHT22;3703;48.016;7.802;2022-09-12T01:39:51;16.10;1.00
7325;DHT22;3703;48.016;7.802;2022-09-12T01:42:45;16.10;1.00
7325;DHT22;3703;48.016;7.802;2022-09-12T01:45:45;16.00;1.00
7325;DHT22;3703;48.016;7.802;2022-09-12T01:48:35;16.00;1.00
7325;DHT22;3703;48.016;7.802;2022-09-12T01:51:27;16.00;1.00
7325;DHT22;3703;48.016;7.802;2022-09-12T01:54:23;16.00;1.00
7325;DHT22;3703;48.016;7.802;2022-09-12T01:57:17;16.00;1.00
7325;DHT22;3703;48.016;7.802;2022-09-12T02:00:10;16.00;1.00
7325;DHT22;3703;48.016;7.802;2022-09-12T02:03:04;16.00;1.00
7325;DHT22;3703;48.016;7.802;2022-09-12T02:05:59;15.60;1.00
7325;DHT22;3703;48.016;7.802;2022-09-12T02:08:52;15.80;1.00
7325;DHT22;3703;48.016;7.802;2022-09-12T02:11:43;15.80;1.00
7325;DHT22;3703;48.016;7.802;2022-09-12T02:14:35;15.80;1.00
7325;DHT22;3703;48.016;7.802;2022-09-12T02:17:24;15.80;1.00
7325;DHT22;3703;48.016;7.802;2022-09-12T02:20:18;15.80;1.00
7325;DHT22;3703;48.016;7.802;2022-09-12T02:23:12;15.80;1.00
7325;DHT22;3703;48.016;7.802;2022-09-12T02:26:05;15.60;1.00
7325;DHT22;3703;48.016;7.802;2022-09-12T02:28:57;15.40;1.00
7325;DHT22;3703;48.016;7.802;2022-09-12T02:31:46;15.50;1.00
7325;DHT22;3703;48.016;7.802;2022-09-12T02:34:42;15.50;1.00
7325;DHT22;3703;48.016;7.802;2022-09-12T02:37:46;15.50;1.00
7325;DHT22;3703;48.016;7.802;2022-09-12T02:40:41;15.50;1.00
7325;DHT22;3703;48.016;7.802;2022-09-12T02:43:29;15.40;1.00
7325;DHT22;3703;48.016;7.802;2022-09-12T02:46:21;15.40;1.00
7325;DHT22;3703;48.016;7.802;2022-09-12T02:49:09;15.40;1.00
7325;DHT22;3703;48.016;7.802;2022-09-12T02:51:58;15.30;1.00
7325;DHT22;3703;48.016;7.802;2022-09-12T02:54:48;15.20;1.00
7325;DHT22;3703;48.016;7.802;2022-09-12T02:57:36;15.30;1.00
7325;DHT22;3703;48.016;7.802;2022-09-12T03:00:24;16.00;1.00
7325;DHT22;3703;48.016;7.802;2022-09-12T03:03:25;15.30;1.00
7325;DHT22;3703;48.016;7.802;2022-09-12T03:06:29;15.20;1.00
7325;DHT22;3703;48.016;7.802;2022-09-12T03:09:25;15.20;1.00
7325;DHT22;3703;48.016;7.802;2022-09-12T03:12:28;15.10;1.00
7325;DHT22;3703;48.016;7.802;2022-09-12T03:15:36;15.10;1.00
7325;DHT22;3703;48.016;7.802;2022-09-12T03:18:40;15.20;1.00
7325;DHT22;3703;48.016;7.802;2022-09-12T03:21:36;15.10;1.00
7325;DHT22;3703;48.016;7.802;2022-09-12T03:24:30;15.10;1.00
7325;DHT22;3703;48.016;7.802;2022-09-12T03:27:26;15.10;1.00
7325;DHT22;3703;48.016;7.802;2022-09-12T03:30:16;15.00;1.00
7325;DHT22;3703;48.016;7.802;2022-09-12T03:33:04;15.00;1.00
7325;DHT22;3703;48.016;7.802;2022-09-12T03:35:52;15.00;1.00
7325;DHT22;3703;48.016;7.802;2022-09-12T03:38:39;14.90;1.00
7325;DHT22;3703;48.016;7.802;2022-09-12T03:41:27;14.90;1.00
7325;DHT22;3703;48.016;7.802;2022-09-12T03:44:16;15.00;1.00
7325;DHT22;3703;48.016;7.802;2022-09-12T03:47:04;14.90;1.00
7325;DHT22;3703;48.016;7.802;2022-09-12T03:49:52;15.00;1.00
7325;DHT22;3703;48.016;7.802;2022-09-12T03:52:40;15.00;1.00
7325;DHT22;3703;48.016;7.802;2022-09-12T03:55:28;14.90;1.00
7325;DHT22;3703;48.016;7.802;2022-09-12T03:58:16;14.80;1.00
7325;DHT22;3703;48.016;7.802;2022-09-12T04:01:09;14.90;1.00
7325;DHT22;3703;48.016;7.802;2022-09-12T04:03:58;14.80;1.00
7325;DHT22;3703;48.016;7.802;2022-09-12T04:06:45;14.70;1.00
7325;DHT22;3703;48.016;7.802;2022-09-12T04:09:33;14.70;1.00
7325;DHT22;3703;48.016;7.802;2022-09-12T04:12:21;14.60;1.00
7325;DHT22;3703;48.016;7.802;2022-09-12T04:15:09;14.60;1.00
7325;DHT22;3703;48.016;7.802;2022-09-12T04:17:58;14.60;1.00
7325;DHT22;3703;48.016;7.802;2022-09-12T04:20:46;14.60;1.00
7325;DHT22;3703;48.016;7.802;2022-09-12T04:23:34;14.50;1.00
7325;DHT22;3703;48.016;7.802;2022-09-12T04:26:22;14.60;1.00
7325;DHT22;3703;48.016;7.802;2022-09-12T04:29:10;14.50;1.00
7325;DHT22;3703;48.016;7.802;2022-09-12T04:32:00;14.50;1.00
7325;DHT22;3703;48.016;7.802;2022-09-12T04:34:49;14.50;1.00
7325;DHT22;3703;48.016;7.802;2022-09-12T04:37:38;14.50;1.00
7325;DHT22;3703;48.016;7.802;2022-09-12T04:40:28;14.50;1.00
7325;DHT22;3703;48.016;7.802;2022-09-12T04:43:16;14.40;1.00
7325;DHT22;3703;48.016;7.802;2022-09-12T04:46:04;14.40;1.00
7325;DHT22;3703;48.016;7.802;2022-09-12T04:48:52;14.30;1.00
7325;DHT22;3703;48.016;7.802;2022-09-12T04:51:42;14.30;1.00
7325;DHT22;3703;48.016;7.802;2022-09-12T04:54:30;14.30;1.00
7325;DHT22;3703;48.016;7.802;2022-09-12T04:57:17;14.30;1.00
7325;DHT22;3703;48.016;7.802;2022-09-12T05:00:06;14.20;1.00
7325;DHT22;3703;48.016;7.802;2022-09-12T05:02:58;14.30;1.00
7325;DHT22;3703;48.016;7.802;2022-09-12T05:05:45;14.20;1.00
7325;DHT22;3703;48.016;7.802;2022-09-12T05:08:34;14.30;1.00
7325;DHT22;3703;48.016;7.802;2022-09-12T05:11:23;14.30;1.00
7325;DHT22;3703;48.016;7.802;2022-09-12T05:14:13;14.30;1.00
7325;DHT22;3703;48.016;7.802;2022-09-12T05:17:01;14.40;1.00
7325;DHT22;3703;48.016;7.802;2022-09-12T05:19:50;14.30;1.00
7325;DHT22;3703;48.016;7.802;2022-09-12T05:22:38;14.20;1.00
7325;DHT22;3703;48.016;7.802;2022-09-12T05:25:27;14.10;1.00
7325;DHT22;3703;48.016;7.802;2022-09-12T05:28:15;14.20;1.00
7325;DHT22;3703;48.016;7.802;2022-09-12T05:31:04;14.30;1.00
7325;DHT22;3703;48.016;7.802;2022-09-12T05:33:54;14.30;1.00
7325;DHT22;3703;48.016;7.802;2022-09-12T05:36:42;14.20;1.00
7325;DHT22;3703;48.016;7.802;2022-09-12T05:39:30;14.10;3.20
7325;DHT22;3703;48.016;7.802;2022-09-12T05:42:19;14.20;1.00
7325;DHT22;3703;48.016;7.802;2022-09-12T05:45:07;14.20;1.00
7325;DHT22;3703;48.016;7.802;2022-09-12T05:47:55;14.30;1.00
7325;DHT22;3703;48.016;7.802;2022-09-12T05:50:43;14.30;1.00
7325;DHT22;3703;48.016;7.802;2022-09-12T05:53:31;14.60;3.80
7325;DHT22;3703;48.016;7.802;2022-09-12T05:56:20;14.70;1.00
7325;DHT22;3703;48.016;7.802;2022-09-12T05:59:13;14.70;1.00
7325;DHT22;3703;48.016;7.802;2022-09-12T06:02:01;14.60;1.00
7325;DHT22;3703;48.016;7.802;2022-09-12T06:04:49;14.60;1.00
7325;DHT22;3703;48.016;7.802;2022-09-12T06:07:36;14.60;8.10
7325;DHT22;3703;48.016;7.802;2022-09-12T06:10:24;14.80;1.00
7325;DHT22;3703;48.016;7.802;2022-09-12T06:13:11;14.80;1.00
7325;DHT22;3703;48.016;7.802;2022-09-12T06:16:05;14.40;21.40
7325;DHT22;3703;48.016;7.802;2022-09-12T06:18:55;14.40;22.90
7325;DHT22;3703;48.016;7.802;2022-09-12T06:21:43;14.30;27.70
7325;DHT22;3703;48.016;7.802;2022-09-12T06:24:32;14.10;36.40
7325;DHT22;3703;48.016;7.802;2022-09-12T06:27:20;14.10;43.20
7325;DHT22;3703;48.016;7.802;2022-09-12T06:30:08;14.30;33.60
7325;DHT22;3703;48.016;7.802;2022-09-12T06:32:58;14.60;24.70
7325;DHT22;3703;48.016;7.802;2022-09-12T06:35:45;14.80;22.20
7325;DHT22;3703;48.016;7.802;2022-09-12T06:38:33;14.90;17.80
7325;DHT22;3703;48.016;7.802;2022-09-12T06:41:21;15.00;21.10
7325;DHT22;3703;48.016;7.802;2022-09-12T06:44:11;15.00;10.10
7325;DHT22;3703;48.016;7.802;2022-09-12T06:47:00;15.00;15.40
7325;DHT22;3703;48.016;7.802;2022-09-12T06:49:49;15.10;11.30
7325;DHT22;3703;48.016;7.802;2022-09-12T06:52:37;15.30;3.90
7325;DHT22;3703;48.016;7.802;2022-09-12T06:55:25;15.40;1.60
7325;DHT22;3703;48.016;7.802;2022-09-12T06:58:13;15.50;2.20
7325;DHT22;3703;48.016;7.802;2022-09-12T07:01:01;15.70;2.20
7325;DHT22;3703;48.016;7.802;2022-09-12T07:03:50;15.60;1.00
7325;DHT22;3703;48.016;7.802;2022-09-12T07:06:41;15.80;1.00
7325;DHT22;3703;48.016;7.802;2022-09-12T07:09:29;16.00;1.00
7325;DHT22;3703;48.016;7.802;2022-09-12T07:12:17;16.20;1.00
7325;DHT22;3703;48.016;7.802;2022-09-12T07:15:05;16.40;1.00
7325;DHT22;3703;48.016;7.802;2022-09-12T07:17:53;16.20;1.00
7325;DHT22;3703;48.016;7.802;2022-09-12T07:20:41;16.20;1.00
7325;DHT22;3703;48.016;7.802;2022-09-12T07:23:30;16.20;1.00
7325;DHT22;3703;48.016;7.802;2022-09-12T07:26:18;16.30;1.00
7325;DHT22;3703;48.016;7.802;2022-09-12T07:29:05;16.50;1.00
7325;DHT22;3703;48.016;7.802;2022-09-12T07:31:54;16.60;1.00
7325;DHT22;3703;48.016;7.802;2022-09-12T07:34:41;16.70;1.00
7325;DHT22;3703;48.016;7.802;2022-09-12T07:37:29;15.80;1.00
7325;DHT22;3703;48.016;7.802;2022-09-12T07:40:19;16.50;1.00
7325;DHT22;3703;48.016;7.802;2022-09-12T07:43:08;16.60;1.00
7325;DHT22;3703;48.016;7.802;2022-09-12T07:45:56;16.90;1.00
7325;DHT22;3703;48.016;7.802;2022-09-12T07:48:43;17.20;1.00
7325;DHT22;3703;48.016;7.802;2022-09-12T07:51:36;17.40;1.00
7325;DHT22;3703;48.016;7.802;2022-09-12T07:54:23;17.60;1.00
7325;DHT22;3703;48.016;7.802;2022-09-12T07:57:12;17.50;1.00
7325;DHT22;3703;48.016;7.802;2022-09-12T08:00:00;17.60;1.00
7325;DHT22;3703;48.016;7.802;2022-09-12T08:02:50;17.90;1.00
7325;DHT22;3703;48.016;7.802;2022-09-12T08:05:38;18.00;1.00
7325;DHT22;3703;48.016;7.802;2022-09-12T08:08:25;18.30;1.00
7325;DHT22;3703;48.016;7.802;2022-09-12T08:11:14;18.50;1.00
7325;DHT22;3703;48.016;7.802;2022-09-12T08:14:04;18.70;1.00
7325;DHT22;3703;48.016;7.802;2022-09-12T08:16:52;18.90;1.00
7325;DHT22;3703;48.016;7.802;2022-09-12T08:19:39;19.00;1.00
7325;DHT22;3703;48.016;7.802;2022-09-12T08:22:29;18.90;1.00
7325;DHT22;3703;48.016;7.802;2022-09-12T08:25:17;19.20;1.00
7325;DHT22;3703;48.016;7.802;2022-09-12T08:28:04;19.50;1.00
7325;DHT22;3703;48.016;7.802;2022-09-12T08:30:54;19.20;1.00
7325;DHT22;3703;48.016;7.802;2022-09-12T08:33:46;18.60;1.00
7325;DHT22;3703;48.016;7.802;2022-09-12T08:36:34;18.80;1.00
7325;DHT22;3703;48.016;7.802;2022-09-12T08:39:22;19.30;1.00
7325;DHT22;3703;48.016;7.802;2022-09-12T08:42:19;19.60;1.00
7325;DHT22;3703;48.016;7.802;2022-09-12T08:45:16;20.00;1.00
7325;DHT22;3703;48.016;7.802;2022-09-12T08:48:09;19.60;1.00
7325;DHT22;3703;48.016;7.802;2022-09-12T08:50:58;19.30;1.00
7325;DHT22;3703;48.016;7.802;2022-09-12T08:53:48;19.50;1.00
7325;DHT22;3703;48.016;7.802;2022-09-12T08:56:38;19.30;1.00
7325;DHT22;3703;48.016;7.802;2022-09-12T08:59:26;19.30;1.00
7325;DHT22;3703;48.016;7.802;2022-09-12T09:05:47;19.60;1.00
7325;DHT22;3703;48.016;7.802;2022-09-12T09:08:45;19.40;1.00
7325;DHT22;3703;48.016;7.802;2022-09-12T09:11:43;19.40;1.00
7325;DHT22;3703;48.016;7.802;2022-09-12T09:14:57;19.30;1.00
7325;DHT22;3703;48.016;7.802;2022-09-12T09:17:57;19.40;1.00
7325;DHT22;3703;48.016;7.802;2022-09-12T09:20:52;19.90;1.00
7325;DHT22;3703;48.016;7.802;2022-09-12T09:23:43;20.10;1.00
7325;DHT22;3703;48.016;7.802;2022-09-12T09:26:40;20.20;1.00
7325;DHT22;3703;48.016;7.802;2022-09-12T09:29:35;20.50;1.00
7325;DHT22;3703;48.016;7.802;2022-09-12T09:32:26;20.70;1.00
7325;DHT22;3703;48.016;7.802;2022-09-12T09:35:18;20.30;1.00
7325;DHT22;3703;48.016;7.802;2022-09-12T09:38:22;20.60;1.00
7325;DHT22;3703;48.016;7.802;2022-09-12T09:41:22;21.20;1.00
7325;DHT22;3703;48.016;7.802;2022-09-12T09:44:18;21.60;1.00
7325;DHT22;3703;48.016;7.802;2022-09-12T09:47:10;22.20;1.00
7325;DHT22;3703;48.016;7.802;2022-09-12T09:49:58;22.50;1.00
7325;DHT22;3703;48.016;7.802;2022-09-12T09:52:46;22.70;1.00
7325;DHT22;3703;48.016;7.802;2022-09-12T09:55:40;22.80;99.90
7325;DHT22;3703;48.016;7.802;2022-09-12T09:58:30;23.30;1.00
7325;DHT22;3703;48.016;7.802;2022-09-12T10:01:18;23.80;99.90
7325;DHT22;3703;48.016;7.802;2022-09-12T10:04:17;24.20;99.90
7325;DHT22;3703;48.016;7.802;2022-09-12T10:07:10;24.30;99.90
7325;DHT22;3703;48.016;7.802;2022-09-12T10:10:13;24.40;99.90
7325;DHT22;3703;48.016;7.802;2022-09-12T10:13:24;24.50;99.90
7325;DHT22;3703;48.016;7.802;2022-09-12T10:16:21;24.60;1.00
7325;DHT22;3703;48.016;7.802;2022-09-12T10:19:20;24.70;99.90
7325;DHT22;3703;48.016;7.802;2022-09-12T10:22:15;25.00;1.00
7325;DHT22;3703;48.016;7.802;2022-09-12T10:25:10;25.20;1.00
7325;DHT22;3703;48.016;7.802;2022-09-12T10:28:01;24.90;99.90
7325;DHT22;3703;48.016;7.802;2022-09-12T10:30:52;24.60;1.00
7325;DHT22;3703;48.016;7.802;2022-09-12T10:33:42;24.60;99.90
7325;DHT22;3703;48.016;7.802;2022-09-12T10:36:38;24.70;99.90
7325;DHT22;3703;48.016;7.802;2022-09-12T10:39:26;25.00;99.90
7325;DHT22;3703;48.016;7.802;2022-09-12T10:42:14;25.50;31.80
7325;DHT22;3703;48.016;7.802;2022-09-12T10:45:27;25.90;99.90
7325;DHT22;3703;48.016;7.802;2022-09-12T10:48:27;26.20;92.30
7325;DHT22;3703;48.016;7.802;2022-09-12T10:51:26;25.80;54.10
7325;DHT22;3703;48.016;7.802;2022-09-12T10:54:16;25.30;1.00
7325;DHT22;3703;48.016;7.802;2022-09-12T10:57:33;25.60;1.00
7325;DHT22;3703;48.016;7.802;2022-09-12T11:00:53;25.10;99.90
7325;DHT22;3703;48.016;7.802;2022-09-12T11:04:03;25.50;99.90
7325;DHT22;3703;48.016;7.802;2022-09-12T11:07:18;24.90;99.90
7325;DHT22;3703;48.016;7.802;2022-09-12T11:10:31;25.40;99.90
7325;DHT22;3703;48.016;7.802;2022-09-12T11:13:42;26.50;1.00
7325;DHT22;3703;48.016;7.802;2022-09-12T11:16:44;27.30;1.00
7325;DHT22;3703;48.016;7.802;2022-09-12T11:19:58;27.90;1.00
7325;DHT22;3703;48.016;7.802;2022-09-12T11:26:48;28.60;99.90
7325;DHT22;3703;48.016;7.802;2022-09-12T11:29:47;29.00;99.90
7325;DHT22;3703;48.016;7.802;2022-09-12T11:32:56;29.10;1.00
7325;DHT22;3703;48.016;7.802;2022-09-12T11:35:51;28.90;1.00
7325;DHT22;3703;48.016;7.802;2022-09-12T11:38:50;28.80;99.90
7325;DHT22;3703;48.016;7.802;2022-09-12T11:41:41;29.40;1.00
7325;DHT22;3703;48.016;7.802;2022-09-12T11:44:36;30.00;99.90
7325;DHT22;3703;48.016;7.802;2022-09-12T11:47:27;29.40;99.90
7325;DHT22;3703;48.016;7.802;2022-09-12T11:50:22;29.20;99.90
7325;DHT22;3703;48.016;7.802;2022-09-12T11:53:16;29.20;99.90
7325;DHT22;3703;48.016;7.802;2022-09-12T11:56:11;29.70;99.90
7325;DHT22;3703;48.016;7.802;2022-09-12T11:59:07;29.40;99.90
7325;DHT22;3703;48.016;7.802;2022-09-12T12:01:59;30.00;99.90
7325;DHT22;3703;48.016;7.802;2022-09-12T12:05:01;30.70;99.90
7325;DHT22;3703;48.016;7.802;2022-09-12T12:07:55;31.10;99.90
7325;DHT22;3703;48.016;7.802;2022-09-12T12:10:50;31.20;99.90
7325;DHT22;3703;48.016;7.802;2022-09-12T12:13:44;31.60;99.90
7325;DHT22;3703;48.016;7.802;2022-09-12T12:16:35;32.10;99.90
7325;DHT22;3703;48.016;7.802;2022-09-12T12:19:32;32.40;80.70
7325;DHT22;3703;48.016;7.802;2022-09-12T12:22:22;31.60;1.00
7325;DHT22;3703;48.016;7.802;2022-09-12T12:25:40;31.10;1.00
7325;DHT22;3703;48.016;7.802;2022-09-12T12:28:59;29.60;1.00
7325;DHT22;3703;48.016;7.802;2022-09-12T12:32:21;28.90;1.00
7325;DHT22;3703;48.016;7.802;2022-09-12T12:35:37;29.00;10.70
7325;DHT22;3703;48.016;7.802;2022-09-12T12:38:27;29.00;18.30
7325;DHT22;3703;48.016;7.802;2022-09-12T12:44:49;29.70;14.60
7325;DHT22;3703;48.016;7.802;2022-09-12T12:47:41;30.10;21.20
7325;DHT22;3703;48.016;7.802;2022-09-12T12:50:31;29.60;1.00
7325;DHT22;3703;48.016;7.802;2022-09-12T12:53:21;29.20;1.00
7325;DHT22;3703;48.016;7.802;2022-09-12T12:56:27;29.80;1.00
7325;DHT22;3703;48.016;7.802;2022-09-12T12:59:22;30.40;1.00
7325;DHT22;3703;48.016;7.802;2022-09-12T13:02:19;30.10;1.00
7325;DHT22;3703;48.016;7.802;2022-09-12T13:05:17;30.70;1.00
7325;DHT22;3703;48.016;7.802;2022-09-12T13:08:09;31.30;1.00
7325;DHT22;3703;48.016;7.802;2022-09-12T13:11:14;31.20;1.00
7325;DHT22;3703;48.016;7.802;2022-09-12T13:14:36;31.60;1.00
7325;DHT22;3703;48.016;7.802;2022-09-12T13:17:38;31.80;1.00
7325;DHT22;3703;48.016;7.802;2022-09-12T13:20:31;31.60;1.00
7325;DHT22;3703;48.016;7.802;2022-09-12T13:23:22;31.80;1.00
7325;DHT22;3703;48.016;7.802;2022-09-12T13:26:13;30.10;1.00
7325;DHT22;3703;48.016;7.802;2022-09-12T13:29:11;29.60;1.00
7325;DHT22;3703;48.016;7.802;2022-09-12T13:32:02;29.40;1.00
7325;DHT22;3703;48.016;7.802;2022-09-12T13:35:09;30.20;1.00
7325;DHT22;3703;48.016;7.802;2022-09-12T13:38:05;30.90;1.00
7325;DHT22;3703;48.016;7.802;2022-09-12T13:41:14;31.30;1.00
7325;DHT22;3703;48.016;7.802;2022-09-12T13:44:12;31.80;1.00
7325;DHT22;3703;48.016;7.802;2022-09-12T13:47:04;32.20;1.00
7325;DHT22;3703;48.016;7.802;2022-09-12T13:49:52;32.60;1.00
7325;DHT22;3703;48.016;7.802;2022-09-12T13:52:45;32.50;1.00
7325;DHT22;3703;48.016;7.802;2022-09-12T13:55:38;32.20;1.00
7325;DHT22;3703;48.016;7.802;2022-09-12T13:58:28;31.80;1.00
7325;DHT22;3703;48.016;7.802;2022-09-12T14:01:17;30.50;99.90
7325;DHT22;3703;48.016;7.802;2022-09-12T14:04:14;30.70;1.00
7325;DHT22;3703;48.016;7.802;2022-09-12T14:07:22;30.80;1.00
7325;DHT22;3703;48.016;7.802;2022-09-12T14:10:16;31.20;1.00
7325;DHT22;3703;48.016;7.802;2022-09-12T14:13:11;31.70;1.00
7325;DHT22;3703;48.016;7.802;2022-09-12T14:16:02;31.60;1.00
7325;DHT22;3703;48.016;7.802;2022-09-12T14:18:54;31.10;1.00
7325;DHT22;3703;48.016;7.802;2022-09-12T14:21:43;30.90;99.90
7325;DHT22;3703;48.016;7.802;2022-09-12T14:24:32;30.60;1.00
7325;DHT22;3703;48.016;7.802;2022-09-12T14:27:22;30.40;1.00
7325;DHT22;3703;48.016;7.802;2022-09-12T14:30:21;30.70;1.00
7325;DHT22;3703;48.016;7.802;2022-09-12T14:33:18;30.90;1.00
7325;DHT22;3703;48.016;7.802;2022-09-12T14:36:09;30.90;1.00
7325;DHT22;3703;48.016;7.802;2022-09-12T14:39:02;30.00;99.90
7325;DHT22;3703;48.016;7.802;2022-09-12T14:41:58;29.50;99.90
7325;DHT22;3703;48.016;7.802;2022-09-12T14:44:52;29.50;1.00
7325;DHT22;3703;48.016;7.802;2022-09-12T14:47:47;29.70;1.00
7325;DHT22;3703;48.016;7.802;2022-09-12T14:50:36;29.30;99.90
7325;DHT22;3703;48.016;7.802;2022-09-12T14:53:30;29.20;99.90
7325;DHT22;3703;48.016;7.802;2022-09-12T14:56:21;29.20;1.00
7325;DHT22;3703;48.016;7.802;2022-09-12T14:59:29;29.30;1.00
7325;DHT22;3703;48.016;7.802;2022-09-12T15:02:24;29.40;1.00
7325;DHT22;3703;48.016;7.802;2022-09-12T15:05:22;29.40;1.00
7325;DHT22;3703;48.016;7.802;2022-09-12T15:08:13;29.30;1.00
7325;DHT22;3703;48.016;7.802;2022-09-12T15:11:01;29.10;1.00
7325;DHT22;3703;48.016;7.802;2022-09-12T15:13:54;28.70;1.00
7325;DHT22;3703;48.016;7.802;2022-09-12T15:16:41;28.40;1.00
7325;DHT22;3703;48.016;7.802;2022-09-12T15:19:29;28.40;1.00
7325;DHT22;3703;48.016;7.802;2022-09-12T15:22:17;28.40;1.00
7325;DHT22;3703;48.016;7.802;2022-09-12T15:25:06;28.20;1.00
7325;DHT22;3703;48.016;7.802;2022-09-12T15:27:55;27.90;1.00
7325;DHT22;3703;48.016;7.802;2022-09-12T15:30:45;27.80;1.00
7325;DHT22;3703;48.016;7.802;2022-09-12T15:33:34;27.80;1.00
7325;DHT22;3703;48.016;7.802;2022-09-12T15:36:22;28.00;1.00
7325;DHT22;3703;48.016;7.802;2022-09-12T15:39:10;28.20;1.00
7325;DHT22;3703;48.016;7.802;2022-09-12T15:41:58;28.30;1.00
7325;DHT22;3703;48.016;7.802;2022-09-12T15:44:45;28.30;1.00
7325;DHT22;3703;48.016;7.802;2022-09-12T15:47:35;28.30;1.00
7325;DHT22;3703;48.016;7.802;2022-09-12T15:50:23;27.70;1.00
7325;DHT22;3703;48.016;7.802;2022-09-12T15:53:14;27.30;1.00
7325;DHT22;3703;48.016;7.802;2022-09-12T15:56:02;27.10;1.00
7325;DHT22;3703;48.016;7.802;2022-09-12T15:58:50;27.10;1.00
7325;DHT22;3703;48.016;7.802;2022-09-12T16:01:38;27.00;99.90
7325;DHT22;3703;48.016;7.802;2022-09-12T16:04:28;27.00;99.90
7325;DHT22;3703;48.016;7.802;2022-09-12T16:07:16;27.10;99.90
7325;DHT22;3703;48.016;7.802;2022-09-12T16:10:04;27.10;1.00
7325;DHT22;3703;48.016;7.802;2022-09-12T16:12:53;26.90;99.90
7325;DHT22;3703;48.016;7.802;2022-09-12T16:15:40;26.60;99.90
7325;DHT22;3703;48.016;7.802;2022-09-12T16:18:29;26.60;99.90
7325;DHT22;3703;48.016;7.802;2022-09-12T16:21:18;26.70;99.90
7325;DHT22;3703;48.016;7.802;2022-09-12T16:24:05;26.60;1.00
7325;DHT22;3703;48.016;7.802;2022-09-12T16:26:53;26.60;1.00
7325;DHT22;3703;48.016;7.802;2022-09-12T16:29:41;26.70;1.00
7325;DHT22;3703;48.016;7.802;2022-09-12T16:32:28;26.60;1.00
7325;DHT22;3703;48.016;7.802;2022-09-12T16:35:16;26.60;1.00
7325;DHT22;3703;48.016;7.802;2022-09-12T16:38:06;26.60;1.00
7325;DHT22;3703;48.016;7.802;2022-09-12T16:40:59;26.50;1.00
7325;DHT22;3703;48.016;7.802;2022-09-12T16:43:47;26.50;1.00
7325;DHT22;3703;48.016;7.802;2022-09-12T16:46:34;26.50;1.00
7325;DHT22;3703;48.016;7.802;2022-09-12T16:49:22;26.50;1.00
7325;DHT22;3703;48.016;7.802;2022-09-12T16:52:10;26.50;1.00
7325;DHT22;3703;48.016;7.802;2022-09-12T16:55:03;26.50;1.00
7325;DHT22;3703;48.016;7.802;2022-09-12T16:57:51;26.50;1.00
7325;DHT22;3703;48.016;7.802;2022-09-12T17:00:39;26.40;1.00
7325;DHT22;3703;48.016;7.802;2022-09-12T17:03:26;26.40;1.00
7325;DHT22;3703;48.016;7.802;2022-09-12T17:06:16;26.30;1.00
7325;DHT22;3703;48.016;7.802;2022-09-12T17:09:04;26.30;1.00
7325;DHT22;3703;48.016;7.802;2022-09-12T17:11:54;26.20;1.00
7325;DHT22;3703;48.016;7.802;2022-09-12T17:14:42;26.10;1.00
7325;DHT22;3703;48.016;7.802;2022-09-12T17:17:30;26.10;1.00
7325;DHT22;3703;48.016;7.802;2022-09-12T17:20:17;26.00;1.00
7325;DHT22;3703;48.016;7.802;2022-09-12T17:23:05;25.80;1.00
7325;DHT22;3703;48.016;7.802;2022-09-12T17:25:52;25.70;27.20
7325;DHT22;3703;48.016;7.802;2022-09-12T17:28:41;25.70;99.90
7325;DHT22;3703;48.016;7.802;2022-09-12T17:31:30;25.50;99.90
7325;DHT22;3703;48.016;7.802;2022-09-12T17:34:18;25.40;99.90
7325;DHT22;3703;48.016;7.802;2022-09-12T17:37:05;25.30;1.00
7325;DHT22;3703;48.016;7.802;2022-09-12T17:39:53;25.30;1.00
7325;DHT22;3703;48.016;7.802;2022-09-12T17:42:40;25.10;99.90
7325;DHT22;3703;48.016;7.802;2022-09-12T17:45:29;25.00;1.00
7325;DHT22;3703;48.016;7.802;2022-09-12T17:48:17;24.80;1.00
7325;DHT22;3703;48.016;7.802;2022-09-12T17:51:08;24.70;99.90
7325;DHT22;3703;48.016;7.802;2022-09-12T17:53:58;24.60;99.90
7325;DHT22;3703;48.016;7.802;2022-09-12T17:56:47;24.40;1.00
7325;DHT22;3703;48.016;7.802;2022-09-12T17:59:36;24.30;1.00
7325;DHT22;3703;48.016;7.802;2022-09-12T18:02:25;24.20;99.90
7325;DHT22;3703;48.016;7.802;2022-09-12T18:05:12;24.00;51.20
7325;DHT22;3703;48.016;7.802;2022-09-12T18:08:00;24.00;99.90
7325;DHT22;3703;48.016;7.802;2022-09-12T18:10:48;23.80;99.90
7325;DHT22;3703;48.016;7.802;2022-09-12T18:13:36;23.70;99.90
7325;DHT22;3703;48.016;7.802;2022-09-12T18:16:24;23.50;99.90
7325;DHT22;3703;48.016;7.802;2022-09-12T18:19:14;23.30;1.00
7325;DHT22;3703;48.016;7.802;2022-09-12T18:22:03;23.30;1.00
7325;DHT22;3703;48.016;7.802;2022-09-12T18:24:51;23.20;99.90
7325;DHT22;3703;48.016;7.802;2022-09-12T18:27:39;23.00;99.90
7325;DHT22;3703;48.016;7.802;2022-09-12T18:30:28;22.80;99.90
7325;DHT22;3703;48.016;7.802;2022-09-12T18:33:16;22.90;1.00
7325;DHT22;3703;48.016;7.802;2022-09-12T18:36:06;22.80;1.00
7325;DHT22;3703;48.016;7.802;2022-09-12T18:38:56;22.80;1.00
7325;DHT22;3703;48.016;7.802;2022-09-12T18:41:45;22.80;1.00
7325;DHT22;3703;48.016;7.802;2022-09-12T18:44:33;22.70;1.00
7325;DHT22;3703;48.016;7.802;2022-09-12T18:47:20;22.70;1.00
7325;DHT22;3703;48.016;7.802;2022-09-12T18:50:08;22.70;39.50
7325;DHT22;3703;48.016;7.802;2022-09-12T18:52:58;22.60;99.90
7325;DHT22;3703;48.016;7.802;2022-09-12T18:55:45;22.40;99.90
7325;DHT22;3703;48.016;7.802;2022-09-12T18:58:33;22.40;99.90
7325;DHT22;3703;48.016;7.802;2022-09-12T19:01:22;22.30;99.90
7325;DHT22;3703;48.016;7.802;2022-09-12T19:04:11;22.20;99.90
7325;DHT22;3703;48.016;7.802;2022-09-12T19:07:01;22.10;99.90
7325;DHT22;3703;48.016;7.802;2022-09-12T19:09:50;22.10;99.90